createdAt,value
2019-01-08T00:03:21.970Z,4.39
2019-01-08T00:07:33.398Z,4.49
2019-01-08T00:11:40.420Z,4.58
2019-01-08T00:15:48.500Z,4.54
2019-01-08T00:19:55.419Z,4.52
2019-01-08T00:24:02.531Z,4.53
2019-01-08T00:28:09.463Z,4.52
2019-01-08T00:32:16.448Z,4.49
2019-01-08T00:36:23.289Z,4.59
2019-01-08T00:40:30.170Z,4.56
2019-01-08T00:44:37.123Z,4.62
2019-01-08T00:48:44.146Z,4.74
2019-01-08T00:52:51.028Z,4.79
2019-01-08T00:56:58.048Z,4.85
2019-01-08T01:01:04.947Z,4.86
2019-01-08T01:05:11.979Z,4.96
2019-01-08T01:09:18.866Z,4.94
2019-01-08T01:13:25.840Z,5.01
2019-01-08T01:17:32.730Z,5.03
2019-01-08T01:21:39.829Z,5.05
2019-01-08T01:25:47.261Z,5.10
2019-01-08T01:29:54.291Z,5.10
2019-01-08T01:34:01.392Z,5.11
2019-01-08T01:38:11.282Z,5.18
2019-01-08T01:42:18.322Z,5.16
2019-01-08T01:46:25.317Z,5.20
2019-01-08T01:50:32.155Z,5.19
2019-01-08T01:54:38.990Z,5.25
2019-01-08T01:58:46.053Z,5.18
2019-01-08T02:02:55.657Z,5.18
2019-01-08T02:07:02.484Z,5.11
2019-01-08T02:11:09.599Z,5.12
2019-01-08T02:15:16.583Z,5.11
2019-01-08T02:19:23.679Z,5.13
2019-01-08T02:23:30.565Z,5.15
2019-01-08T02:27:37.445Z,5.11
2019-01-08T02:31:44.303Z,5.18
2019-01-08T02:35:52.070Z,5.17
2019-01-08T02:39:59.016Z,5.26
2019-01-08T02:44:06.220Z,5.23
2019-01-08T02:48:13.185Z,5.27
2019-01-08T02:52:20.071Z,5.26
2019-01-08T02:56:27.171Z,5.30
2019-01-08T03:00:34.258Z,5.40
2019-01-08T03:04:41.245Z,5.46
2019-01-08T03:08:48.164Z,5.47
2019-01-08T03:12:55.124Z,5.52
2019-01-08T03:17:02.173Z,5.54
2019-01-08T03:21:09.214Z,5.65
2019-01-08T03:25:18.212Z,5.74
2019-01-08T03:29:33.372Z,5.75
2019-01-08T03:33:33.753Z,5.76
2019-01-08T03:37:40.987Z,5.88
2019-01-08T03:41:47.850Z,5.80
2019-01-08T03:45:54.973Z,5.84
2019-01-08T03:50:02.565Z,5.92
2019-01-08T03:54:09.413Z,5.97
2019-01-08T03:58:16.368Z,5.97
2019-01-08T04:02:23.295Z,6.03
2019-01-08T04:06:30.215Z,6.03
2019-01-08T04:10:37.090Z,6.08
2019-01-08T04:14:43.977Z,6.12
2019-01-08T04:18:51.040Z,6.15
2019-01-08T04:23:00.947Z,6.10
2019-01-08T04:27:07.898Z,6.15
2019-01-08T04:31:14.827Z,6.25
2019-01-08T04:35:21.710Z,6.32
2019-01-08T04:39:28.798Z,6.37
2019-01-08T04:43:35.871Z,6.42
2019-01-08T04:47:42.892Z,6.45
2019-01-08T04:51:50.165Z,6.41
2019-01-08T04:55:57.187Z,6.45
2019-01-08T05:00:04.195Z,6.48
2019-01-08T05:04:11.245Z,6.51
2019-01-08T05:08:18.258Z,6.46
2019-01-08T05:12:25.134Z,6.46
2019-01-08T05:16:32.091Z,6.42
2019-01-08T05:20:39.050Z,6.38
2019-01-08T05:24:45.944Z,6.37
2019-01-08T05:28:53.034Z,6.31
2019-01-08T05:33:00.380Z,6.32
2019-01-08T05:37:07.322Z,6.36
2019-01-08T05:41:14.419Z,6.38
2019-01-08T05:45:21.540Z,6.33
2019-01-08T05:49:28.600Z,6.34
2019-01-08T05:53:37.973Z,6.35
2019-01-08T05:57:45.010Z,6.39
2019-01-08T06:01:51.983Z,6.39
2019-01-08T06:06:00.861Z,6.47
2019-01-08T06:10:09.998Z,6.50
2019-01-08T06:14:20.540Z,6.58
2019-01-08T06:18:29.231Z,6.59
2019-01-08T06:22:36.634Z,6.71
2019-01-08T06:26:43.957Z,6.70
2019-01-08T06:30:51.103Z,6.66
2019-01-08T06:34:57.953Z,6.66
2019-01-08T06:39:05.820Z,6.68
2019-01-08T06:43:17.530Z,6.69
2019-01-08T06:47:26.263Z,6.70
2019-01-08T06:51:33.444Z,6.72
2019-01-08T06:55:40.608Z,6.77
2019-01-08T06:59:47.668Z,6.66
2019-01-08T07:03:54.627Z,6.57
2019-01-08T07:08:01.717Z,6.60
2019-01-08T07:12:09.806Z,6.48
2019-01-08T07:16:18.903Z,6.43
2019-01-08T07:20:25.890Z,6.35
2019-01-08T07:24:32.837Z,6.33
2019-01-08T07:28:39.871Z,6.31
2019-01-08T07:32:46.851Z,6.36
2019-01-08T07:36:53.882Z,6.37
2019-01-08T07:41:00.833Z,6.39
2019-01-08T07:45:08.127Z,6.40
2019-01-08T07:49:15.150Z,6.38
2019-01-08T07:53:22.209Z,6.40
2019-01-08T07:57:29.168Z,6.48
2019-01-08T08:01:36.501Z,6.48
2019-01-08T08:05:43.398Z,6.52
2019-01-08T08:09:50.359Z,6.49
2019-01-08T08:13:57.319Z,6.50
2019-01-08T08:18:04.484Z,6.51
2019-01-08T08:22:12.418Z,6.48
2019-01-08T08:26:20.535Z,6.41
2019-01-08T08:30:27.642Z,6.37
2019-01-08T08:34:34.777Z,6.36
2019-01-08T08:38:43.228Z,6.35
2019-01-08T08:42:50.234Z,6.42
2019-01-08T08:46:57.236Z,6.38
2019-01-08T08:51:04.110Z,6.41
2019-01-08T08:55:11.514Z,6.39
2019-01-08T08:59:18.710Z,6.38
2019-01-08T09:03:25.638Z,6.42
2019-01-08T09:07:32.594Z,6.41
2019-01-08T09:11:39.500Z,6.39
2019-01-08T09:15:46.533Z,6.42
2019-01-08T09:19:53.565Z,6.46
2019-01-08T09:24:00.641Z,6.48
2019-01-08T09:28:07.557Z,6.46
2019-01-08T09:32:15.726Z,6.55
2019-01-08T09:36:22.895Z,6.38
2019-01-08T09:40:29.758Z,6.32
2019-01-08T09:44:36.686Z,6.34
2019-01-08T09:48:45.013Z,6.51
2019-01-08T09:52:52.251Z,6.38
2019-01-08T09:56:59.167Z,6.41
2019-01-08T10:01:07.639Z,6.35
2019-01-08T10:05:14.693Z,6.39
2019-01-08T10:09:21.688Z,6.34
2019-01-08T10:13:28.772Z,6.30
2019-01-08T10:17:35.741Z,6.28
2019-01-08T10:21:45.205Z,6.41
2019-01-08T10:25:52.142Z,6.49
2019-01-08T10:29:59.156Z,6.27
2019-01-08T10:34:07.737Z,6.31
2019-01-08T10:38:15.199Z,6.48
2019-01-08T10:42:25.203Z,6.50
2019-01-08T10:46:37.419Z,6.68
2019-01-08T10:50:41.876Z,6.72
2019-01-08T10:54:48.861Z,6.55
2019-01-08T10:58:55.829Z,6.62
2019-01-08T11:03:02.819Z,6.42
2019-01-08T11:07:09.952Z,6.33
2019-01-08T11:11:16.932Z,6.36
2019-01-08T11:15:23.880Z,6.47
2019-01-08T11:19:32.701Z,6.09
2019-01-08T11:23:39.661Z,6.14
2019-01-08T11:27:48.010Z,6.18
2019-01-08T11:31:54.927Z,6.22
2019-01-08T11:36:02.101Z,6.23
2019-01-08T11:40:09.269Z,6.25
2019-01-08T11:44:16.368Z,6.38
2019-01-08T11:48:23.583Z,6.26
2019-01-08T11:52:30.641Z,6.47
2019-01-08T11:56:41.006Z,6.63
2019-01-08T12:00:47.957Z,6.66
2019-01-08T12:04:56.813Z,6.57
2019-01-08T12:09:04.224Z,6.66
2019-01-08T12:13:12.448Z,6.52
2019-01-08T12:17:19.434Z,6.49
2019-01-08T12:21:35.126Z,6.63
2019-01-08T12:25:42.083Z,6.55
2019-01-08T12:29:49.058Z,6.72
2019-01-08T12:33:56.197Z,6.74
2019-01-08T12:38:03.380Z,6.58
2019-01-08T12:42:10.481Z,6.50
2019-01-08T12:46:17.743Z,6.44
2019-01-08T12:50:24.869Z,6.52
2019-01-08T12:54:31.909Z,6.35
2019-01-08T12:58:39.174Z,6.31
2019-01-08T13:02:46.221Z,6.44
2019-01-08T13:06:53.200Z,6.37
2019-01-08T13:11:00.292Z,6.38
2019-01-08T13:15:07.505Z,6.37
2019-01-08T13:19:14.547Z,6.37
2019-01-08T13:23:21.568Z,6.45
2019-01-08T13:27:28.672Z,6.55
2019-01-08T13:31:35.702Z,6.60
2019-01-08T13:35:42.674Z,6.67
2019-01-08T13:39:50.020Z,6.69
2019-01-08T13:43:58.882Z,6.79
2019-01-08T13:48:05.720Z,6.78
2019-01-08T13:52:12.623Z,6.82
2019-01-08T13:56:20.712Z,6.83
2019-01-08T14:00:33.855Z,6.88
2019-01-08T14:04:42.740Z,6.92
2019-01-08T14:08:53.731Z,6.98
2019-01-08T14:13:01.039Z,7.06
2019-01-08T14:17:09.766Z,7.02
2019-01-08T14:21:16.821Z,7.06
2019-01-08T14:25:25.061Z,7.07
2019-01-08T14:29:32.156Z,7.15
2019-01-08T14:33:39.014Z,7.09
2019-01-08T14:37:47.057Z,7.07
2019-01-08T14:41:54.000Z,7.03
2019-01-08T14:46:02.309Z,6.97
2019-01-08T14:50:10.337Z,6.96
2019-01-08T14:54:18.028Z,6.90
2019-01-08T14:58:25.034Z,6.91
2019-01-08T15:02:34.736Z,6.85
2019-01-08T15:06:41.726Z,6.90
2019-01-08T15:10:48.676Z,6.75
2019-01-08T15:14:55.594Z,6.78
2019-01-08T15:19:02.878Z,6.68
2019-01-08T15:23:11.058Z,6.68
2019-01-08T15:27:21.800Z,6.62
2019-01-08T15:31:28.813Z,6.61
2019-01-08T15:35:36.886Z,6.64
2019-01-08T15:39:44.653Z,6.55
2019-01-08T15:43:51.739Z,6.58
2019-01-08T15:47:58.729Z,6.59
2019-01-08T15:52:05.918Z,6.50
2019-01-08T15:56:12.901Z,6.49
2019-01-08T16:00:22.298Z,6.47
2019-01-08T16:04:29.287Z,6.49
2019-01-08T16:08:36.320Z,6.51
2019-01-08T16:12:45.181Z,6.46
2019-01-08T16:16:53.983Z,6.51
2019-01-08T16:21:01.291Z,6.51
2019-01-08T16:25:09.595Z,6.55
2019-01-08T16:29:18.302Z,6.53
2019-01-08T16:33:25.464Z,6.52
2019-01-08T16:37:34.101Z,6.45
2019-01-08T16:41:41.088Z,6.46
2019-01-08T16:45:48.821Z,6.45
2019-01-08T16:49:55.867Z,6.53
2019-01-08T16:54:03.183Z,6.68
2019-01-08T16:58:10.192Z,6.65
2019-01-08T17:02:17.126Z,6.48
2019-01-08T17:06:25.692Z,6.53
2019-01-08T17:10:33.021Z,6.32
2019-01-08T17:14:40.053Z,5.96
2019-01-08T17:18:47.494Z,5.90
2019-01-08T17:22:55.979Z,5.70
2019-01-08T17:27:02.832Z,5.71
2019-01-08T17:31:09.788Z,5.57
2019-01-08T17:35:16.773Z,5.56
2019-01-08T17:39:25.719Z,5.47
2019-01-08T17:43:33.618Z,5.49
2019-01-08T17:47:42.329Z,5.49
2019-01-08T17:51:52.362Z,5.34
2019-01-08T17:55:59.412Z,5.14
2019-01-08T18:00:10.291Z,5.01
2019-01-08T18:04:20.418Z,4.94
2019-01-08T18:08:32.665Z,4.86
2019-01-08T18:12:39.597Z,4.87
2019-01-08T18:16:46.695Z,4.84
2019-01-08T18:20:53.845Z,4.86
2019-01-08T18:25:01.527Z,4.94
2019-01-08T18:29:08.960Z,4.88
2019-01-08T18:33:18.854Z,5.02
2019-01-08T18:37:27.000Z,5.06
2019-01-08T18:41:34.576Z,5.16
2019-01-08T18:45:41.629Z,5.25
2019-01-08T18:49:48.520Z,5.36
2019-01-08T18:53:55.646Z,5.50
2019-01-08T18:58:02.707Z,5.61
2019-01-08T19:02:10.000Z,5.60
2019-01-08T19:06:17.291Z,5.69
2019-01-08T19:10:24.466Z,5.76
2019-01-08T19:14:41.220Z,5.74
2019-01-08T19:18:48.249Z,5.71
2019-01-08T19:22:55.355Z,5.66
2019-01-08T19:27:03.578Z,5.67
2019-01-08T19:31:10.911Z,5.62
2019-01-08T19:35:21.202Z,5.54
2019-01-08T19:39:28.811Z,5.47
2019-01-08T19:43:39.248Z,5.47
2019-01-08T19:47:46.354Z,5.46
2019-01-08T19:51:53.382Z,5.61
2019-01-08T19:56:00.628Z,5.79
2019-01-08T20:00:15.139Z,5.89
2019-01-08T20:04:26.747Z,5.71
2019-01-08T20:08:34.078Z,5.74
2019-01-08T20:12:46.560Z,5.81
2019-01-08T20:16:59.330Z,5.88
2019-01-08T20:21:15.415Z,5.91
2019-01-08T20:25:31.509Z,5.88
2019-01-08T20:29:41.767Z,5.91
2019-01-08T20:33:49.236Z,5.90
2019-01-08T20:37:59.495Z,5.87
2019-01-08T20:42:09.916Z,5.76
2019-01-08T20:46:17.727Z,5.72
2019-01-08T20:50:25.472Z,5.74
2019-01-08T20:54:37.854Z,5.67
2019-01-08T20:58:45.171Z,5.70
2019-01-08T21:02:56.686Z,5.59
2019-01-08T21:07:05.277Z,5.50
2019-01-08T21:11:12.869Z,5.56
2019-01-08T21:15:20.358Z,5.57
2019-01-08T21:19:28.574Z,5.51
2019-01-08T21:23:37.720Z,5.54
2019-01-08T21:27:45.234Z,5.54
2019-01-08T21:31:52.788Z,5.57
2019-01-08T21:36:02.942Z,5.47
2019-01-08T21:40:14.239Z,5.42
2019-01-08T21:44:22.766Z,5.44
2019-01-08T21:48:38.064Z,5.36
2019-01-08T21:52:49.672Z,5.24
2019-01-08T21:57:06.039Z,5.26
2019-01-08T22:01:33.106Z,5.16
2019-01-08T22:05:40.724Z,5.12
2019-01-08T22:09:48.292Z,5.18
2019-01-08T22:13:57.248Z,5.24
2019-01-08T22:18:04.277Z,5.34
2019-01-08T22:22:11.195Z,5.11
2019-01-08T22:26:18.103Z,5.12
2019-01-08T22:30:26.653Z,5.21
2019-01-08T22:34:33.907Z,5.20
2019-01-08T22:38:40.940Z,5.26
2019-01-08T22:42:49.845Z,5.26
2019-01-08T22:46:56.954Z,5.20
2019-01-08T22:51:04.206Z,5.25
2019-01-08T22:55:11.055Z,5.26
2019-01-08T22:59:17.877Z,5.02
2019-01-08T23:03:25.284Z,4.97
2019-01-08T23:07:38.627Z,4.96
2019-01-08T23:11:45.662Z,4.93
2019-01-08T23:15:52.654Z,4.96
2019-01-08T23:19:59.843Z,4.95
2019-01-08T23:24:06.774Z,4.94
2019-01-08T23:28:14.804Z,5.04
2019-01-08T23:32:21.804Z,5.03
2019-01-08T23:36:31.771Z,5.08
2019-01-08T23:40:38.789Z,5.12
2019-01-08T23:44:45.707Z,5.03
2019-01-08T23:48:52.726Z,5.10
2019-01-08T23:53:09.314Z,5.09
2019-01-08T23:57:18.834Z,5.11
